sensor_id;sensor_type;location;lat;lon;timestamp;P1;durP1;ratioP1;P2;durP2;ratioP2
30303;SDS011;17112;48.636;10.152;2024-03-23T00:55:52;8.98;;;4.50;;
30303;SDS011;17112;48.636;10.152;2024-03-23T00:58:18;10.45;;;4.45;;
30303;SDS011;17112;48.636;10.152;2024-03-23T01:00:43;11.15;;;4.90;;
30303;SDS011;17112;48.636;10.152;2024-03-23T01:03:09;8.02;;;4.32;;
30303;SDS011;17112;48.636;10.152;2024-03-23T01:05:35;7.95;;;4.75;;
30303;SDS011;17112;48.636;10.152;2024-03-23T01:08:00;8.13;;;4.80;;
30303;SDS011;17112;48.636;10.152;2024-03-23T01:10:27;6.03;;;3.85;;
30303;SDS011;17112;48.636;10.152;2024-03-23T01:12:52;6.53;;;3.55;;
30303;SDS011;17112;48.636;10.152;2024-03-23T01:15:18;6.28;;;4.13;;
30303;SDS011;17112;48.636;10.152;2024-03-23T01:17:44;5.97;;;4.03;;
30303;SDS011;17112;48.636;10.152;2024-03-23T01:20:09;9.43;;;3.75;;
30303;SDS011;17112;48.636;10.152;2024-03-23T01:22:35;5.90;;;3.78;;
30303;SDS011;17112;48.636;10.152;2024-03-23T01:25:01;5.60;;;3.97;;
30303;SDS011;17112;48.636;10.152;2024-03-23T01:27:26;8.55;;;4.03;;
30303;SDS011;17112;48.636;10.152;2024-03-23T01:29:52;9.15;;;3.72;;
30303;SDS011;17112;48.636;10.152;2024-03-23T01:32:18;5.50;;;4.00;;
30303;SDS011;17112;48.636;10.152;2024-03-23T01:34:44;5.85;;;3.92;;
30303;SDS011;17112;48.636;10.152;2024-03-23T01:37:10;6.38;;;4.22;;
30303;SDS011;17112;48.636;10.152;2024-03-23T01:39:35;10.07;;;4.47;;
30303;SDS011;17112;48.636;10.152;2024-03-23T01:42:01;5.60;;;3.92;;
30303;SDS011;17112;48.636;10.152;2024-03-23T01:44:27;5.85;;;4.32;;
30303;SDS011;17112;48.636;10.152;2024-03-23T01:46:53;7.47;;;4.35;;
30303;SDS011;17112;48.636;10.152;2024-03-23T01:49:19;6.82;;;4.35;;
30303;SDS011;17112;48.636;10.152;2024-03-23T01:51:45;8.82;;;4.18;;
30303;SDS011;17112;48.636;10.152;2024-03-23T01:54:11;7.65;;;4.10;;
30303;SDS011;17112;48.636;10.152;2024-03-23T01:56:37;7.50;;;4.45;;
30303;SDS011;17112;48.636;10.152;2024-03-23T01:59:06;6.07;;;4.22;;
30303;SDS011;17112;48.636;10.152;2024-03-23T02:01:32;6.80;;;4.25;;
30303;SDS011;17112;48.636;10.152;2024-03-23T02:04:00;10.35;;;4.65;;
30303;SDS011;17112;48.636;10.152;2024-03-23T02:06:26;4.80;;;4.15;;
30303;SDS011;17112;48.636;10.152;2024-03-23T02:08:52;7.63;;;4.88;;
30303;SDS011;17112;48.636;10.152;2024-03-23T02:11:19;5.60;;;4.82;;
30303;SDS011;17112;48.636;10.152;2024-03-23T02:13:45;6.30;;;4.35;;
30303;SDS011;17112;48.636;10.152;2024-03-23T02:16:11;7.45;;;4.70;;
30303;SDS011;17112;48.636;10.152;2024-03-23T02:18:38;12.20;;;4.72;;
30303;SDS011;17112;48.636;10.152;2024-03-23T02:21:04;8.00;;;4.60;;
30303;SDS011;17112;48.636;10.152;2024-03-23T02:23:29;8.35;;;4.63;;
30303;SDS011;17112;48.636;10.152;2024-03-23T02:25:55;9.65;;;5.13;;
30303;SDS011;17112;48.636;10.152;2024-03-23T02:28:21;8.85;;;5.15;;
30303;SDS011;17112;48.636;10.152;2024-03-23T02:30:48;12.85;;;5.15;;
30303;SDS011;17112;48.636;10.152;2024-03-23T02:33:14;7.22;;;4.85;;
30303;SDS011;17112;48.636;10.152;2024-03-23T02:35:40;7.00;;;4.93;;
30303;SDS011;17112;48.636;10.152;2024-03-23T02:38:05;7.88;;;5.15;;
30303;SDS011;17112;48.636;10.152;2024-03-23T02:40:31;6.15;;;4.63;;
30303;SDS011;17112;48.636;10.152;2024-03-23T02:42:57;5.88;;;4.78;;
30303;SDS011;17112;48.636;10.152;2024-03-23T02:45:28;7.15;;;4.68;;
30303;SDS011;17112;48.636;10.152;2024-03-23T02:47:53;6.55;;;4.40;;
30303;SDS011;17112;48.636;10.152;2024-03-23T02:50:19;6.32;;;4.28;;
30303;SDS011;17112;48.636;10.152;2024-03-23T02:52:45;7.22;;;4.63;;
30303;SDS011;17112;48.636;10.152;2024-03-23T02:55:11;6.88;;;4.70;;
30303;SDS011;17112;48.636;10.152;2024-03-23T02:57:37;6.82;;;4.68;;
30303;SDS011;17112;48.636;10.152;2024-03-23T03:00:03;5.35;;;4.35;;
30303;SDS011;17112;48.636;10.152;2024-03-23T03:02:30;7.07;;;4.03;;
30303;SDS011;17112;48.636;10.152;2024-03-23T03:04:56;7.82;;;4.20;;
30303;SDS011;17112;48.636;10.152;2024-03-23T03:07:21;7.20;;;4.60;;
30303;SDS011;17112;48.636;10.152;2024-03-23T03:09:47;7.68;;;4.82;;
30303;SDS011;17112;48.636;10.152;2024-03-23T03:12:12;10.25;;;4.22;;
30303;SDS011;17112;48.636;10.152;2024-03-23T03:14:38;9.43;;;4.40;;
30303;SDS011;17112;48.636;10.152;2024-03-23T03:17:04;8.68;;;5.05;;
30303;SDS011;17112;48.636;10.152;2024-03-23T03:19:29;6.95;;;4.15;;
30303;SDS011;17112;48.636;10.152;2024-03-23T03:21:55;9.27;;;4.28;;
30303;SDS011;17112;48.636;10.152;2024-03-23T03:24:21;5.25;;;4.00;;
30303;SDS011;17112;48.636;10.152;2024-03-23T03:26:47;10.05;;;4.88;;
30303;SDS011;17112;48.636;10.152;2024-03-23T03:29:12;5.78;;;4.22;;
30303;SDS011;17112;48.636;10.152;2024-03-23T03:31:38;6.05;;;4.18;;
30303;SDS011;17112;48.636;10.152;2024-03-23T03:34:04;7.53;;;4.28;;
30303;SDS011;17112;48.636;10.152;2024-03-23T03:36:30;7.00;;;3.72;;
30303;SDS011;17112;48.636;10.152;2024-03-23T03:38:55;4.07;;;3.20;;
30303;SDS011;17112;48.636;10.152;2024-03-23T03:41:21;4.18;;;3.20;;
30303;SDS011;17112;48.636;10.152;2024-03-23T03:43:47;4.03;;;2.85;;
30303;SDS011;17112;48.636;10.152;2024-03-23T03:46:12;5.65;;;3.35;;
30303;SDS011;17112;48.636;10.152;2024-03-23T03:48:38;5.28;;;3.15;;
30303;SDS011;17112;48.636;10.152;2024-03-23T03:51:04;4.35;;;3.22;;
30303;SDS011;17112;48.636;10.152;2024-03-23T03:53:30;3.92;;;2.92;;
30303;SDS011;17112;48.636;10.152;2024-03-23T03:55:56;11.45;;;2.97;;
30303;SDS011;17112;48.636;10.152;2024-03-23T03:58:25;3.05;;;2.65;;
30303;SDS011;17112;48.636;10.152;2024-03-23T04:00:51;7.80;;;2.95;;
30303;SDS011;17112;48.636;10.152;2024-03-23T04:03:17;6.30;;;2.67;;
30303;SDS011;17112;48.636;10.152;2024-03-23T04:05:43;7.03;;;3.08;;
30303;SDS011;17112;48.636;10.152;2024-03-23T04:08:14;4.18;;;2.60;;
30303;SDS011;17112;48.636;10.152;2024-03-23T04:10:40;5.05;;;2.70;;
30303;SDS011;17112;48.636;10.152;2024-03-23T04:13:05;4.93;;;2.70;;
30303;SDS011;17112;48.636;10.152;2024-03-23T04:15:31;3.72;;;3.00;;
30303;SDS011;17112;48.636;10.152;2024-03-23T04:17:57;8.90;;;3.05;;
30303;SDS011;17112;48.636;10.152;2024-03-23T04:20:23;3.88;;;2.70;;
30303;SDS011;17112;48.636;10.152;2024-03-23T04:22:48;4.07;;;2.65;;
30303;SDS011;17112;48.636;10.152;2024-03-23T04:25:14;4.05;;;2.50;;
30303;SDS011;17112;48.636;10.152;2024-03-23T04:27:40;4.38;;;2.72;;
30303;SDS011;17112;48.636;10.152;2024-03-23T04:30:07;5.53;;;2.90;;
30303;SDS011;17112;48.636;10.152;2024-03-23T04:32:39;5.03;;;3.00;;
30303;SDS011;17112;48.636;10.152;2024-03-23T04:35:05;4.85;;;2.75;;
30303;SDS011;17112;48.636;10.152;2024-03-23T04:37:32;4.55;;;2.72;;
30303;SDS011;17112;48.636;10.152;2024-03-23T04:39:59;4.90;;;2.80;;
30303;SDS011;17112;48.636;10.152;2024-03-23T04:42:26;8.38;;;2.90;;
30303;SDS011;17112;48.636;10.152;2024-03-23T04:44:52;3.63;;;2.65;;
30303;SDS011;17112;48.636;10.152;2024-03-23T04:47:19;6.30;;;3.08;;
30303;SDS011;17112;48.636;10.152;2024-03-23T04:49:46;6.65;;;3.10;;
30303;SDS011;17112;48.636;10.152;2024-03-23T04:52:12;7.38;;;3.00;;
30303;SDS011;17112;48.636;10.152;2024-03-23T04:54:38;3.90;;;2.70;;
30303;SDS011;17112;48.636;10.152;2024-03-23T04:57:05;5.03;;;3.33;;
30303;SDS011;17112;48.636;10.152;2024-03-23T04:59:31;6.38;;;2.72;;
30303;SDS011;17112;48.636;10.152;2024-03-23T05:01:58;4.78;;;3.00;;
30303;SDS011;17112;48.636;10.152;2024-03-23T05:04:27;6.20;;;3.00;;
30303;SDS011;17112;48.636;10.152;2024-03-23T05:06:53;4.75;;;3.40;;
30303;SDS011;17112;48.636;10.152;2024-03-23T05:09:19;5.68;;;3.40;;
30303;SDS011;17112;48.636;10.152;2024-03-23T05:11:48;3.75;;;2.85;;
30303;SDS011;17112;48.636;10.152;2024-03-23T05:14:14;5.03;;;2.80;;
30303;SDS011;17112;48.636;10.152;2024-03-23T05:16:40;4.22;;;3.03;;
30303;SDS011;17112;48.636;10.152;2024-03-23T05:19:06;3.42;;;2.70;;
30303;SDS011;17112;48.636;10.152;2024-03-23T05:21:32;4.03;;;2.42;;
30303;SDS011;17112;48.636;10.152;2024-03-23T05:23:58;7.70;;;2.60;;
30303;SDS011;17112;48.636;10.152;2024-03-23T05:26:23;7.47;;;2.90;;
30303;SDS011;17112;48.636;10.152;2024-03-23T05:28:49;5.88;;;3.00;;
30303;SDS011;17112;48.636;10.152;2024-03-23T05:31:27;4.35;;;2.53;;
30303;SDS011;17112;48.636;10.152;2024-03-23T05:33:54;5.78;;;3.00;;
30303;SDS011;17112;48.636;10.152;2024-03-23T05:36:20;4.57;;;2.90;;
30303;SDS011;17112;48.636;10.152;2024-03-23T05:38:46;4.60;;;3.20;;
30303;SDS011;17112;48.636;10.152;2024-03-23T05:41:15;5.22;;;3.40;;
30303;SDS011;17112;48.636;10.152;2024-03-23T05:43:41;4.88;;;3.25;;
30303;SDS011;17112;48.636;10.152;2024-03-23T05:46:06;4.95;;;2.90;;
30303;SDS011;17112;48.636;10.152;2024-03-23T05:48:34;4.57;;;3.22;;
30303;SDS011;17112;48.636;10.152;2024-03-23T05:51:00;5.38;;;3.10;;
30303;SDS011;17112;48.636;10.152;2024-03-23T05:53:26;4.95;;;3.00;;
30303;SDS011;17112;48.636;10.152;2024-03-23T05:55:59;6.20;;;3.35;;
30303;SDS011;17112;48.636;10.152;2024-03-23T05:58:29;7.63;;;3.28;;
30303;SDS011;17112;48.636;10.152;2024-03-23T06:00:59;5.68;;;3.20;;
30303;SDS011;17112;48.636;10.152;2024-03-23T06:03:26;5.70;;;3.38;;
30303;SDS011;17112;48.636;10.152;2024-03-23T06:05:52;5.43;;;3.42;;
30303;SDS011;17112;48.636;10.152;2024-03-23T06:08:19;3.58;;;2.83;;
30303;SDS011;17112;48.636;10.152;2024-03-23T06:10:45;6.18;;;2.75;;
30303;SDS011;17112;48.636;10.152;2024-03-23T06:13:11;3.92;;;2.53;;
30303;SDS011;17112;48.636;10.152;2024-03-23T06:15:40;4.45;;;2.42;;
30303;SDS011;17112;48.636;10.152;2024-03-23T06:18:10;3.70;;;2.40;;
30303;SDS011;17112;48.636;10.152;2024-03-23T06:20:37;5.13;;;2.33;;
30303;SDS011;17112;48.636;10.152;2024-03-23T06:23:02;5.18;;;3.25;;
30303;SDS011;17112;48.636;10.152;2024-03-23T06:25:28;6.60;;;4.25;;
30303;SDS011;17112;48.636;10.152;2024-03-23T06:27:55;6.35;;;4.57;;
30303;SDS011;17112;48.636;10.152;2024-03-23T06:30:21;13.55;;;5.95;;
30303;SDS011;17112;48.636;10.152;2024-03-23T06:32:47;7.10;;;5.38;;
30303;SDS011;17112;48.636;10.152;2024-03-23T06:35:15;8.07;;;4.68;;
30303;SDS011;17112;48.636;10.152;2024-03-23T06:37:41;7.10;;;4.68;;
30303;SDS011;17112;48.636;10.152;2024-03-23T06:40:07;7.57;;;4.90;;
30303;SDS011;17112;48.636;10.152;2024-03-23T06:42:35;6.07;;;3.92;;
30303;SDS011;17112;48.636;10.152;2024-03-23T06:45:04;7.85;;;4.57;;
30303;SDS011;17112;48.636;10.152;2024-03-23T06:47:41;7.47;;;3.80;;
30303;SDS011;17112;48.636;10.152;2024-03-23T06:50:09;5.35;;;4.15;;
30303;SDS011;17112;48.636;10.152;2024-03-23T06:52:35;4.60;;;4.03;;
30303;SDS011;17112;48.636;10.152;2024-03-23T06:55:01;4.60;;;3.75;;
30303;SDS011;17112;48.636;10.152;2024-03-23T06:57:29;4.80;;;4.00;;
30303;SDS011;17112;48.636;10.152;2024-03-23T06:59:56;6.05;;;4.32;;
30303;SDS011;17112;48.636;10.152;2024-03-23T07:02:22;5.60;;;4.00;;
30303;SDS011;17112;48.636;10.152;2024-03-23T07:04:48;6.68;;;4.07;;
30303;SDS011;17112;48.636;10.152;2024-03-23T07:07:13;4.07;;;3.38;;
30303;SDS011;17112;48.636;10.152;2024-03-23T07:09:39;4.30;;;3.65;;
30303;SDS011;17112;48.636;10.152;2024-03-23T07:12:05;4.00;;;3.08;;
30303;SDS011;17112;48.636;10.152;2024-03-23T07:14:31;4.30;;;3.03;;
30303;SDS011;17112;48.636;10.152;2024-03-23T07:16:57;4.63;;;3.45;;
30303;SDS011;17112;48.636;10.152;2024-03-23T07:19:22;4.22;;;2.63;;
30303;SDS011;17112;48.636;10.152;2024-03-23T07:21:49;4.85;;;3.10;;
30303;SDS011;17112;48.636;10.152;2024-03-23T07:24:15;3.38;;;2.47;;
30303;SDS011;17112;48.636;10.152;2024-03-23T07:26:41;4.07;;;3.08;;
30303;SDS011;17112;48.636;10.152;2024-03-23T07:29:06;4.45;;;2.80;;
30303;SDS011;17112;48.636;10.152;2024-03-23T07:31:32;2.90;;;2.60;;
30303;SDS011;17112;48.636;10.152;2024-03-23T07:34:01;2.50;;;2.10;;
30303;SDS011;17112;48.636;10.152;2024-03-23T07:36:27;3.80;;;2.45;;
30303;SDS011;17112;48.636;10.152;2024-03-23T07:38:53;3.40;;;2.95;;
30303;SDS011;17112;48.636;10.152;2024-03-23T07:41:19;4.30;;;2.95;;
30303;SDS011;17112;48.636;10.152;2024-03-23T07:43:46;3.60;;;2.55;;
30303;SDS011;17112;48.636;10.152;2024-03-23T07:46:12;3.92;;;2.78;;
30303;SDS011;17112;48.636;10.152;2024-03-23T07:48:40;4.20;;;2.53;;
30303;SDS011;17112;48.636;10.152;2024-03-23T07:51:10;4.72;;;2.92;;
30303;SDS011;17112;48.636;10.152;2024-03-23T07:53:46;3.08;;;2.20;;
30303;SDS011;17112;48.636;10.152;2024-03-23T07:56:13;5.57;;;2.30;;
30303;SDS011;17112;48.636;10.152;2024-03-23T07:58:40;3.47;;;2.47;;
30303;SDS011;17112;48.636;10.152;2024-03-23T08:01:09;3.05;;;2.08;;
30303;SDS011;17112;48.636;10.152;2024-03-23T08:03:40;1.63;;;1.50;;
30303;SDS011;17112;48.636;10.152;2024-03-23T08:08:36;1.42;;;1.17;;
30303;SDS011;17112;48.636;10.152;2024-03-23T08:11:02;1.40;;;1.10;;
30303;SDS011;17112;48.636;10.152;2024-03-23T08:13:29;1.10;;;1.00;;
30303;SDS011;17112;48.636;10.152;2024-03-23T08:15:58;0.95;;;0.88;;
30303;SDS011;17112;48.636;10.152;2024-03-23T08:18:25;0.82;;;0.80;;
30303;SDS011;17112;48.636;10.152;2024-03-23T08:21:03;0.65;;;0.65;;
30303;SDS011;17112;48.636;10.152;2024-03-23T08:23:31;0.60;;;0.60;;
30303;SDS011;17112;48.636;10.152;2024-03-23T08:26:08;0.57;;;0.57;;
30303;SDS011;17112;48.636;10.152;2024-03-23T08:28:38;0.50;;;0.50;;
30303;SDS011;17112;48.636;10.152;2024-03-23T08:31:08;0.50;;;0.50;;
30303;SDS011;17112;48.636;10.152;2024-03-23T08:33:34;0.65;;;0.60;;
30303;SDS011;17112;48.636;10.152;2024-03-23T08:36:04;1.15;;;0.45;;
30303;SDS011;17112;48.636;10.152;2024-03-23T08:38:33;0.40;;;0.40;;
30303;SDS011;17112;48.636;10.152;2024-03-23T08:41:00;0.50;;;0.50;;
30303;SDS011;17112;48.636;10.152;2024-03-23T08:43:35;0.50;;;0.50;;
30303;SDS011;17112;48.636;10.152;2024-03-23T08:46:09;0.50;;;0.50;;
30303;SDS011;17112;48.636;10.152;2024-03-23T08:48:37;0.77;;;0.77;;
30303;SDS011;17112;48.636;10.152;2024-03-23T08:51:08;0.50;;;0.50;;
30303;SDS011;17112;48.636;10.152;2024-03-23T08:53:37;0.50;;;0.50;;
30303;SDS011;17112;48.636;10.152;2024-03-23T08:56:04;0.50;;;0.50;;
30303;SDS011;17112;48.636;10.152;2024-03-23T08:58:34;0.40;;;0.40;;
30303;SDS011;17112;48.636;10.152;2024-03-23T09:01:11;0.50;;;0.50;;
30303;SDS011;17112;48.636;10.152;2024-03-23T09:03:40;0.60;;;0.50;;
30303;SDS011;17112;48.636;10.152;2024-03-23T09:06:09;0.38;;;0.38;;
30303;SDS011;17112;48.636;10.152;2024-03-23T09:08:36;0.50;;;0.50;;
30303;SDS011;17112;48.636;10.152;2024-03-23T09:11:05;0.40;;;0.40;;
30303;SDS011;17112;48.636;10.152;2024-03-23T09:13:35;0.32;;;0.32;;
30303;SDS011;17112;48.636;10.152;2024-03-23T09:16:01;0.40;;;0.40;;
30303;SDS011;17112;48.636;10.152;2024-03-23T09:18:31;0.47;;;0.47;;
30303;SDS011;17112;48.636;10.152;2024-03-23T09:21:00;1.70;;;1.60;;
30303;SDS011;17112;48.636;10.152;2024-03-23T09:23:26;0.60;;;0.60;;
30303;SDS011;17112;48.636;10.152;2024-03-23T09:25:52;2.90;;;0.45;;
30303;SDS011;17112;48.636;10.152;2024-03-23T09:28:18;0.73;;;0.50;;
30303;SDS011;17112;48.636;10.152;2024-03-23T09:30:44;0.70;;;0.70;;
30303;SDS011;17112;48.636;10.152;2024-03-23T09:33:10;0.57;;;0.57;;
30303;SDS011;17112;48.636;10.152;2024-03-23T09:35:40;0.50;;;0.50;;
30303;SDS011;17112;48.636;10.152;2024-03-23T09:38:07;1.23;;;0.65;;
30303;SDS011;17112;48.636;10.152;2024-03-23T09:40:34;1.90;;;0.55;;
30303;SDS011;17112;48.636;10.152;2024-03-23T09:43:09;0.80;;;0.80;;
30303;SDS011;17112;48.636;10.152;2024-03-23T09:45:38;7.30;;;0.80;;
30303;SDS011;17112;48.636;10.152;2024-03-23T09:48:06;0.70;;;0.60;;
30303;SDS011;17112;48.636;10.152;2024-03-23T09:50:38;2.60;;;1.25;;
30303;SDS011;17112;48.636;10.152;2024-03-23T09:53:08;1.70;;;1.00;;
30303;SDS011;17112;48.636;10.152;2024-03-23T09:55:38;3.28;;;0.88;;
30303;SDS011;17112;48.636;10.152;2024-03-23T09:58:05;2.60;;;0.90;;
30303;SDS011;17112;48.636;10.152;2024-03-23T10:00:31;2.53;;;1.10;;
30303;SDS011;17112;48.636;10.152;2024-03-23T10:02:58;1.55;;;1.00;;
30303;SDS011;17112;48.636;10.152;2024-03-23T10:05:27;2.05;;;0.90;;
30303;SDS011;17112;48.636;10.152;2024-03-23T10:07:53;2.47;;;1.23;;
30303;SDS011;17112;48.636;10.152;2024-03-23T10:10:19;5.18;;;1.40;;
30303;SDS011;17112;48.636;10.152;2024-03-23T10:12:47;3.15;;;1.30;;
30303;SDS011;17112;48.636;10.152;2024-03-23T10:15:25;3.47;;;1.52;;
30303;SDS011;17112;48.636;10.152;2024-03-23T10:17:51;4.60;;;2.20;;
30303;SDS011;17112;48.636;10.152;2024-03-23T10:20:21;3.50;;;1.60;;
30303;SDS011;17112;48.636;10.152;2024-03-23T10:22:47;3.63;;;1.35;;
30303;SDS011;17112;48.636;10.152;2024-03-23T10:25:16;7.10;;;2.05;;
30303;SDS011;17112;48.636;10.152;2024-03-23T10:27:56;4.25;;;1.52;;
30303;SDS011;17112;48.636;10.152;2024-03-23T10:30:24;2.63;;;1.27;;
30303;SDS011;17112;48.636;10.152;2024-03-23T10:32:55;3.17;;;1.48;;
30303;SDS011;17112;48.636;10.152;2024-03-23T10:35:36;3.53;;;1.52;;
30303;SDS011;17112;48.636;10.152;2024-03-23T10:38:04;7.45;;;2.10;;
30303;SDS011;17112;48.636;10.152;2024-03-23T10:40:31;6.00;;;2.13;;
30303;SDS011;17112;48.636;10.152;2024-03-23T10:43:02;6.57;;;2.63;;
30303;SDS011;17112;48.636;10.152;2024-03-23T10:45:32;6.43;;;2.03;;
30303;SDS011;17112;48.636;10.152;2024-03-23T10:47:57;4.30;;;2.28;;
30303;SDS011;17112;48.636;10.152;2024-03-23T10:50:24;6.32;;;2.47;;
30303;SDS011;17112;48.636;10.152;2024-03-23T10:52:50;6.65;;;2.20;;
30303;SDS011;17112;48.636;10.152;2024-03-23T10:55:18;6.32;;;2.38;;
30303;SDS011;17112;48.636;10.152;2024-03-23T10:57:50;9.77;;;5.82;;
30303;SDS011;17112;48.636;10.152;2024-03-23T11:00:18;9.70;;;2.50;;
30303;SDS011;17112;48.636;10.152;2024-03-23T11:02:46;6.32;;;2.22;;
30303;SDS011;17112;48.636;10.152;2024-03-23T11:05:28;6.15;;;2.38;;
30303;SDS011;17112;48.636;10.152;2024-03-23T11:07:55;5.82;;;2.25;;
30303;SDS011;17112;48.636;10.152;2024-03-23T11:10:27;5.30;;;2.30;;
30303;SDS011;17112;48.636;10.152;2024-03-23T11:15:43;6.63;;;2.13;;
30303;SDS011;17112;48.636;10.152;2024-03-23T11:18:09;3.65;;;1.67;;
30303;SDS011;17112;48.636;10.152;2024-03-23T11:20:36;9.43;;;2.50;;
30303;SDS011;17112;48.636;10.152;2024-03-23T11:23:01;6.03;;;2.35;;
30303;SDS011;17112;48.636;10.152;2024-03-23T11:25:28;7.88;;;2.35;;
30303;SDS011;17112;48.636;10.152;2024-03-23T11:27:55;8.98;;;2.17;;
30303;SDS011;17112;48.636;10.152;2024-03-23T11:30:26;7.35;;;2.88;;
30303;SDS011;17112;48.636;10.152;2024-03-23T11:32:55;6.28;;;2.40;;
30303;SDS011;17112;48.636;10.152;2024-03-23T11:35:28;6.47;;;2.63;;
30303;SDS011;17112;48.636;10.152;2024-03-23T11:38:29;9.93;;;3.25;;
30303;SDS011;17112;48.636;10.152;2024-03-23T11:40:48;6.13;;;2.20;;
30303;SDS011;17112;48.636;10.152;2024-03-23T11:43:15;6.40;;;2.25;;
30303;SDS011;17112;48.636;10.152;2024-03-23T11:45:45;9.30;;;2.63;;
30303;SDS011;17112;48.636;10.152;2024-03-23T11:48:13;7.40;;;2.70;;
30303;SDS011;17112;48.636;10.152;2024-03-23T11:50:43;8.30;;;2.50;;
30303;SDS011;17112;48.636;10.152;2024-03-23T11:53:12;7.35;;;2.13;;
30303;SDS011;17112;48.636;10.152;2024-03-23T11:58:17;9.57;;;2.63;;
30303;SDS011;17112;48.636;10.152;2024-03-23T12:03:22;5.05;;;2.13;;
30303;SDS011;17112;48.636;10.152;2024-03-23T12:05:53;7.18;;;2.40;;
30303;SDS011;17112;48.636;10.152;2024-03-23T12:08:24;8.50;;;2.78;;
30303;SDS011;17112;48.636;10.152;2024-03-23T12:11:04;5.90;;;2.55;;
30303;SDS011;17112;48.636;10.152;2024-03-23T12:13:35;3.35;;;1.60;;
30303;SDS011;17112;48.636;10.152;2024-03-23T12:16:13;3.38;;;1.40;;
30303;SDS011;17112;48.636;10.152;2024-03-23T12:18:43;2.55;;;1.35;;
30303;SDS011;17112;48.636;10.152;2024-03-23T12:21:10;2.17;;;1.20;;
30303;SDS011;17112;48.636;10.152;2024-03-23T12:23:38;1.58;;;1.20;;
30303;SDS011;17112;48.636;10.152;2024-03-23T12:26:05;4.50;;;1.48;;
30303;SDS011;17112;48.636;10.152;2024-03-23T12:28:31;3.53;;;1.50;;
30303;SDS011;17112;48.636;10.152;2024-03-23T12:30:58;6.40;;;1.52;;
30303;SDS011;17112;48.636;10.152;2024-03-23T12:33:23;1.33;;;1.23;;
30303;SDS011;17112;48.636;10.152;2024-03-23T12:35:49;1.45;;;1.23;;
30303;SDS011;17112;48.636;10.152;2024-03-23T12:38:15;3.40;;;1.52;;
30303;SDS011;17112;48.636;10.152;2024-03-23T12:40:42;2.70;;;1.60;;
30303;SDS011;17112;48.636;10.152;2024-03-23T12:43:13;6.45;;;1.65;;
30303;SDS011;17112;48.636;10.152;2024-03-23T12:45:39;7.13;;;1.60;;
30303;SDS011;17112;48.636;10.152;2024-03-23T12:48:04;4.93;;;1.80;;
30303;SDS011;17112;48.636;10.152;2024-03-23T12:50:30;3.67;;;1.70;;
30303;SDS011;17112;48.636;10.152;2024-03-23T12:52:56;3.90;;;1.60;;
30303;SDS011;17112;48.636;10.152;2024-03-23T12:55:22;4.65;;;1.77;;
30303;SDS011;17112;48.636;10.152;2024-03-23T12:57:48;3.75;;;1.63;;
30303;SDS011;17112;48.636;10.152;2024-03-23T13:00:14;5.50;;;1.60;;
30303;SDS011;17112;48.636;10.152;2024-03-23T13:02:41;2.33;;;1.20;;
30303;SDS011;17112;48.636;10.152;2024-03-23T13:05:08;5.53;;;1.70;;
30303;SDS011;17112;48.636;10.152;2024-03-23T13:07:34;9.10;;;2.10;;
30303;SDS011;17112;48.636;10.152;2024-03-23T13:10:00;7.32;;;1.77;;
30303;SDS011;17112;48.636;10.152;2024-03-23T13:12:27;6.43;;;1.52;;
30303;SDS011;17112;48.636;10.152;2024-03-23T13:14:53;5.40;;;1.50;;
30303;SDS011;17112;48.636;10.152;2024-03-23T13:17:18;5.07;;;1.50;;
30303;SDS011;17112;48.636;10.152;2024-03-23T13:19:44;6.03;;;1.60;;
30303;SDS011;17112;48.636;10.152;2024-03-23T13:22:10;3.35;;;1.17;;
30303;SDS011;17112;48.636;10.152;2024-03-23T13:24:36;4.43;;;1.67;;
30303;SDS011;17112;48.636;10.152;2024-03-23T13:27:03;8.23;;;1.90;;
30303;SDS011;17112;48.636;10.152;2024-03-23T13:29:30;7.25;;;1.55;;
30303;SDS011;17112;48.636;10.152;2024-03-23T13:31:56;8.15;;;1.95;;
30303;SDS011;17112;48.636;10.152;2024-03-23T13:34:21;7.40;;;1.73;;
30303;SDS011;17112;48.636;10.152;2024-03-23T13:36:47;4.72;;;1.60;;
30303;SDS011;17112;48.636;10.152;2024-03-23T13:39:13;6.53;;;1.75;;
30303;SDS011;17112;48.636;10.152;2024-03-23T13:41:41;4.60;;;1.65;;
30303;SDS011;17112;48.636;10.152;2024-03-23T13:44:08;6.60;;;1.73;;
30303;SDS011;17112;48.636;10.152;2024-03-23T13:46:36;4.68;;;1.63;;
30303;SDS011;17112;48.636;10.152;2024-03-23T13:49:06;6.55;;;1.88;;
30303;SDS011;17112;48.636;10.152;2024-03-23T13:51:32;11.75;;;2.00;;
30303;SDS011;17112;48.636;10.152;2024-03-23T13:53:58;6.55;;;1.92;;
30303;SDS011;17112;48.636;10.152;2024-03-23T13:56:29;8.98;;;1.85;;
30303;SDS011;17112;48.636;10.152;2024-03-23T13:58:55;8.27;;;1.92;;
30303;SDS011;17112;48.636;10.152;2024-03-23T14:01:21;6.28;;;1.85;;
30303;SDS011;17112;48.636;10.152;2024-03-23T14:03:47;5.70;;;1.77;;
30303;SDS011;17112;48.636;10.152;2024-03-23T14:06:13;9.70;;;2.22;;
30303;SDS011;17112;48.636;10.152;2024-03-23T14:08:39;7.20;;;1.98;;
30303;SDS011;17112;48.636;10.152;2024-03-23T14:11:05;6.05;;;2.00;;
30303;SDS011;17112;48.636;10.152;2024-03-23T14:13:31;6.00;;;2.00;;
30303;SDS011;17112;48.636;10.152;2024-03-23T14:15:58;6.95;;;2.10;;
30303;SDS011;17112;48.636;10.152;2024-03-23T14:18:24;10.20;;;2.63;;
30303;SDS011;17112;48.636;10.152;2024-03-23T14:20:51;11.57;;;2.63;;
30303;SDS011;17112;48.636;10.152;2024-03-23T14:23:18;9.52;;;2.60;;
30303;SDS011;17112;48.636;10.152;2024-03-23T14:25:44;5.05;;;2.22;;
30303;SDS011;17112;48.636;10.152;2024-03-23T14:28:10;9.02;;;2.30;;
30303;SDS011;17112;48.636;10.152;2024-03-23T14:30:42;6.80;;;2.38;;
30303;SDS011;17112;48.636;10.152;2024-03-23T14:33:08;6.55;;;2.08;;
30303;SDS011;17112;48.636;10.152;2024-03-23T14:35:34;6.20;;;2.08;;
30303;SDS011;17112;48.636;10.152;2024-03-23T14:38:00;4.15;;;1.42;;
30303;SDS011;17112;48.636;10.152;2024-03-23T14:40:26;7.50;;;2.10;;
30303;SDS011;17112;48.636;10.152;2024-03-23T14:42:53;4.63;;;1.48;;
30303;SDS011;17112;48.636;10.152;2024-03-23T14:45:22;4.65;;;1.73;;
30303;SDS011;17112;48.636;10.152;2024-03-23T14:47:49;4.10;;;1.40;;
30303;SDS011;17112;48.636;10.152;2024-03-23T14:50:18;3.75;;;1.40;;
30303;SDS011;17112;48.636;10.152;2024-03-23T14:52:44;5.22;;;1.52;;
30303;SDS011;17112;48.636;10.152;2024-03-23T14:55:11;6.35;;;1.33;;
30303;SDS011;17112;48.636;10.152;2024-03-23T14:57:37;2.78;;;1.40;;
30303;SDS011;17112;48.636;10.152;2024-03-23T15:00:05;6.13;;;1.55;;
30303;SDS011;17112;48.636;10.152;2024-03-23T15:02:32;6.88;;;1.50;;
30303;SDS011;17112;48.636;10.152;2024-03-23T15:04:59;2.38;;;1.30;;
30303;SDS011;17112;48.636;10.152;2024-03-23T15:07:25;6.28;;;1.25;;
30303;SDS011;17112;48.636;10.152;2024-03-23T15:09:52;4.93;;;1.60;;
30303;SDS011;17112;48.636;10.152;2024-03-23T15:12:18;6.07;;;1.40;;
30303;SDS011;17112;48.636;10.152;2024-03-23T15:14:44;3.53;;;1.30;;
30303;SDS011;17112;48.636;10.152;2024-03-23T15:17:11;9.77;;;1.63;;
30303;SDS011;17112;48.636;10.152;2024-03-23T15:19:36;5.40;;;1.42;;
30303;SDS011;17112;48.636;10.152;2024-03-23T15:22:02;4.85;;;1.58;;
30303;SDS011;17112;48.636;10.152;2024-03-23T15:24:28;3.35;;;1.30;;
30303;SDS011;17112;48.636;10.152;2024-03-23T15:26:54;5.63;;;1.52;;
30303;SDS011;17112;48.636;10.152;2024-03-23T15:29:22;6.50;;;1.63;;
30303;SDS011;17112;48.636;10.152;2024-03-23T15:31:48;3.67;;;1.20;;
30303;SDS011;17112;48.636;10.152;2024-03-23T15:34:17;4.25;;;1.50;;
30303;SDS011;17112;48.636;10.152;2024-03-23T15:36:49;4.57;;;1.25;;
30303;SDS011;17112;48.636;10.152;2024-03-23T15:39:18;3.05;;;1.02;;